Thursday, July 19, 2018, 5:55 AM GMT
Back to Local

CYHZ, Halifax International Airport

Location: , , Canada Lat: 44.883
Local Time: 5:55 AM GMT ( 5:55 GMT) Lon: -63.5
Time Zone: GMT Elev: 475 ft

Show me the last for .
Show Decoded

2018-07-19 05:08 METAR CYHZ 190508Z 33006KT 2SM R23/3500VP6000FT/N R14/4500VP6000FT/U BR OVC007
                 19/19 A2984 RMK FG6SC2 VIS HIER W SLP106 DENSITY ALT 1200FT =
2018-07-19 05:00 METAR CYHZ 190500Z 34005KT 1/4SM R23/1400V2400FT/N R14/2800V6000FT/N FG VV001
                 19/19 A2984 RMK FG8 SLP107 DENSITY ALT 1200FT =
2018-07-19 04:53 METAR CYHZ 190453Z 33005KT 1/4SM R23/2000FT/N R14/1400V2000FT/N FG VV001 20/20
                 A2984 RMK FG8 SLP106 DENSITY ALT 1300FT =
2018-07-19 04:46 METAR CYHZ 190446Z 33005KT 1/2SM R23/3000VP6000FT/D R14/1800FT/N FG VV002 20/20
                 A2984 RMK FG8 SLP106 DENSITY ALT 1300FT =
2018-07-19 04:19 METAR CYHZ 190419Z 32005KT 3/4SM R23/P6000FT/N R14/4500VP6000FT/D BR OVC002
                 20/20 A2984 RMK FG7ST1 SLP106 DENSITY ALT 1300FT =
2018-07-19 04:00 METAR CYHZ 190400Z 33003KT 1 1/2SM R14/4000VP6000FT/U BR OVC003 20/20 A2985 RMK
                 FG7ST1 SLP108 DENSITY ALT 1300FT =
2018-07-19 03:48 METAR CYHZ 190348Z 31003KT 1SM R23/P6000FT/N R14/3000FT/N BR OVC002 20/20 A2984
                 RMK FG7ST1 SLP107 DENSITY ALT 1300FT =
2018-07-19 03:39 METAR CYHZ 190339Z 32002KT 3/4SM R23/P6000FT/U R14/3500FT/D BR VV002 20/20 A2984
                 RMK FG8 SLP107 DENSITY ALT 1300FT =
2018-07-19 03:00 METAR CYHZ 190300Z 00000KT 1/2SM R23/P6000FT/U R14/3500FT/N FG VV002 20/20 A2985
                 RMK FG8 SLP108 DENSITY ALT 1200FT =
2018-07-19 02:07 METAR CYHZ 190207Z 13003KT 3/4SM R23/P6000FT/N R14/3000VP6000FT/D BR VV002 20/19
                 A2984 RMK FG8 SLP107 DENSITY ALT 1300FT =
2018-07-19 02:00 METAR CYHZ 190200Z 17003KT 160V230 1 1/2SM R14/4000VP6000FT/D BR OVC002 20/20
                 A2984 RMK FG6ST2 SLP107 DENSITY ALT 1300FT =
2018-07-19 01:07 METAR CYHZ 190107Z 00000KT 6SM BR BKN004 OVC250 20/20 A2983 RMK SF6CI2 VIS N 10
                 SLP102 DENSITY ALT 1300FT =
2018-07-19 01:00 METAR CYHZ 190100Z 00000KT 10SM BKN007 OVC250 20/20 A2983 RMK SF5CI3 SLP103
                 DENSITY ALT 1300FT =
2018-07-19 00:00 METAR CYHZ 190000Z 18004KT 15SM FEW010 FEW035 SCT100 BKN270 20/20 A2981 RMK
                 SF1CU1AC2CI4 SF TR SLP096 DENSITY ALT 1400FT =
2018-07-18 23:00 METAR CYHZ 182300Z 21006KT 15SM FEW008 SCT035 BKN090 BKN270 21/20 A2980 RMK
                 SF1CU2AC3CI1 SLP094 DENSITY ALT 1400FT =
2018-07-18 22:49 METAR CYHZ 182249Z 20006KT 15SM FEW008 SCT035 BKN080 BKN270 21/20 A2980 RMK
                 SF1SC2AC3CI1 SLP092 DENSITY ALT 1400FT =
2018-07-18 22:12 METAR CYHZ 182212Z 21006KT 15SM -RA SCT008 OVC080 21/20 A2980 RMK SF4AC4 SLP092
                 DENSITY ALT 1500FT =
2018-07-18 22:00 METAR CYHZ 182200Z 20007KT 15SM SCT008 OVC080 21/20 A2979 RMK SF3AC5 SLP090
                 DENSITY ALT 1500FT =
2018-07-18 21:21 METAR CYHZ 182121Z 22006KT 15SM FEW005 SCT012 OVC120 22/20 A2979 RMK SF1SC2AC5
                 SLP087 DENSITY ALT 1500FT =
2018-07-18 21:00 METAR CYHZ 182100Z 22007KT 12SM FEW005 BKN011 OVC110 22/20 A2979 RMK SF2SC3AC3
                 SLP087 DENSITY ALT 1500FT =
2018-07-18 20:36 METAR CYHZ 182036Z 22009KT 12SM SCT008 BKN018 OVC120 22/20 A2978 RMK SF3SC3AC2
                 SLP086 DENSITY ALT 1600FT =
2018-07-18 20:00 METAR CYHZ 182000Z 20007KT 12SM OVC009 22/21 A2978 RMK SC8 INTMT -RA SLP084
                 DENSITY ALT 1600FT =
2018-07-18 19:37 METAR CYHZ 181937Z 20009KT 10SM -RA BKN009 OVC100 22/21 A2978 RMK SC5AC3 SLP084
                 DENSITY ALT 1600FT =
2018-07-18 19:16 METAR CYHZ 181916Z 20007KT 12SM -RA BKN012 OVC100 22/21 A2978 RMK SC6AC2 SLP084
                 DENSITY ALT 1600FT =
2018-07-18 19:00 METAR CYHZ 181900Z 21008KT 12SM BKN011 OVC100 23/21 A2977 RMK SC5AC3 SLP083
                 DENSITY ALT 1700FT =
2018-07-18 18:38 METAR CYHZ 181838Z 23008KT 12SM BKN010 OVC098 23/21 A2977 RMK SC5AC3 SLP082
                 DENSITY ALT 1700FT =
2018-07-18 18:22 METAR CYHZ 181822Z 23007KT 12SM SCT008 BKN100 OVC260 23/21 A2976 RMK SC4AC3CI1
                 SLP079 DENSITY ALT 1700FT =
2018-07-18 18:00 METAR CYHZ 181800Z 20007KT 10SM BKN007 OVC098 22/21 A2977 RMK SF7AC1 SLP081
                 DENSITY ALT 1600FT =
2018-07-18 17:26 METAR CYHZ 181726Z 22008KT 8SM BKN005 OVC011 22/21 A2977 RMK ST7SC1 SLP083
                 DENSITY ALT 1600FT =
2018-07-18 17:00 METAR CYHZ 181700Z 18006KT 2SM BR OVC002 21/21 A2976 RMK ST8 SLP078 DENSITY ALT
                 1500FT =
2018-07-18 16:42 METAR CYHZ 181642Z CCA 21006KT 1 1/2SM BR OVC002 21/21 A2977 RMK ST8 SLP080
                 DENSITY ALT 1500FT =
2018-07-18 16:30 METAR CYHZ 181630Z 21009KT 2 1/2SM BR OVC001 21/21 A2977 RMK ST8 SLP081 DENSITY
                 ALT 1500FT =
2018-07-18 16:12 METAR CYHZ 181612Z 21010KT 6SM BR OVC002 21/20 A2977 RMK ST8 SLP081 DENSITY ALT
                 1500FT =
2018-07-18 16:00 METAR CYHZ 181600Z 19009G16KT 10SM OVC004 21/21 A2977 RMK ST8 SLP080 DENSITY ALT
                 1500FT =
2018-07-18 15:00 METAR CYHZ 181500Z 20009KT 10SM BKN008 BKN013 OVC027 22/20 A2977 RMK SF5SC2SC1
                 SLP081 DENSITY ALT 1600FT =
2018-07-18 14:49 METAR CYHZ 181449Z 21007KT 8SM BKN006 OVC018 22/21 A2977 RMK SF6SC2 SLP081
                 DENSITY ALT 1600FT =
2018-07-18 14:32 METAR CYHZ 181432Z 20008G15KT 6SM BR BKN004 BKN010 21/21 A2977 RMK SF6SC1 SLP080
                 DENSITY ALT 1500FT =
2018-07-18 14:26 METAR CYHZ 181426Z 21009G15KT 4SM BR OVC004 21/21 A2977 RMK ST8 SLP080 DENSITY
                 ALT 1500FT =
2018-07-18 14:17 METAR CYHZ 181417Z 20011KT 3SM BR BKN002 OVC034 21/21 A2977 RMK SF7SC1 SLP080
                 DENSITY ALT 1500FT =
2018-07-18 14:12 METAR CYHZ 181412Z 19009KT 2SM BR OVC002 21/21 A2976 RMK ST8 SLP079 DENSITY ALT
                 1500FT =
2018-07-18 14:00 METAR CYHZ 181400Z 19009KT 1SM R23/6000FT/U -SHRA BR OVC001 20/20 A2976 RMK
                 DZ3ST5 SLP078 DENSITY ALT 1400FT =
2018-07-18 13:52 METAR CYHZ 181352Z 19008KT 1SM R23/5000VP6000FT/N -SHRA BR OVC001 20/20 A2976
                 RMK FG2ST6 SLP080 DENSITY ALT 1400FT =
2018-07-18 13:39 METAR CYHZ 181339Z 17008KT 1 1/2SM -SHRA BR OVC001 20/20 A2976 RMK ST8 SLP080
                 DENSITY ALT 1400FT =
2018-07-18 13:00 METAR CYHZ 181300Z 18012KT 2SM -SHRA BR OVC002 20/20 A2978 RMK ST8 CVCTV CLD
                 EMBD SLP085 DENSITY ALT 1400FT =
2018-07-18 12:04 METAR CYHZ 181204Z 18010KT 2SM -SHRA BR OVC002 20/20 A2979 RMK ST8 CVCTV CLD
                 EMBD SLP090 DENSITY ALT 1400FT =
2018-07-18 12:00 METAR CYHZ 181200Z 17008KT 2SM BR OVC002 20/20 A2979 RMK ST8 /R35/ SLP089
                 DENSITY ALT 1400FT =
2018-07-18 11:47 METAR CYHZ 181147Z 17010KT 2SM BR OVC003 20/20 A2979 RMK ST8 SLP089 DENSITY ALT
                 1400FT =
2018-07-18 11:16 METAR CYHZ 181116Z 20012KT 10SM OVC004 20/20 A2979 RMK ST8 SLP089 DENSITY ALT
                 1400FT =
2018-07-18 11:00 METAR CYHZ 181100Z 20010G17KT 7SM -RA OVC004 20/20 A2980 RMK NS8 /R30/ SLP092
                 DENSITY ALT 1300FT =
2018-07-18 10:23 METAR CYHZ 181023Z 20013KT 7SM -RA OVC004 20/20 A2980 RMK NS8 SLP091 DENSITY ALT
                 1300FT =
2018-07-18 10:00 METAR CYHZ 181000Z 19011G20KT 3SM -RA BR OVC003 19/19 A2980 RMK NS8 SLP091
                 DENSITY ALT 1300FT =
2018-07-18 09:48 METAR CYHZ 180948Z 19013G18KT 6SM -RA BR OVC002 20/20 A2980 RMK NS8 SLP092
                 DENSITY ALT 1300FT =
2018-07-18 09:07 METAR CYHZ 180907Z 21010KT 3SM R23/4500VP6000FT/U R14/4000VP6000FT/U -RA BR
                 OVC005 20/20 A2980 RMK NS8 PRESFR SLP093 DENSITY ALT 1300FT =
2018-07-18 09:00 METAR CYHZ 180900Z 22009KT 2SM R23/4000VP6000FT/N R14/3500VP6000FT/D RA BR
                 OVC003 20/20 A2981 RMK NS8 PRESRR SLP094 DENSITY ALT 1300FT =
2018-07-18 08:51 METAR CYHZ 180851Z 24010KT 180V250 1SM R23/4000VP6000FT/U R14/P6000FT/D +RA BR
                 OVC002 20/20 A2982 RMK NS8 SLP097 DENSITY ALT 1300FT =
2018-07-18 08:46 METAR CYHZ 180846Z 20006KT 180V260 1 3/4SM R23/4000VP6000FT/D RA BR OVC004 20/20
                 A2980 RMK NS8 SLP090 DENSITY ALT 1300FT =
2018-07-18 08:30 METAR CYHZ 180830Z 22005KT 120V240 1 1/2SM R23/5000VP6000FT/D R14/4000VP6000FT/D
                 -RA BR VV001 19/19 A2980 RMK FG8 SLP090 DENSITY ALT 1300FT =
2018-07-18 08:21 METAR CYHZ 180821Z 14006KT 5/8SM R23/P6000FT/U R14/P6000FT/N -RA BR VV001 19/19
                 A2978 RMK FG8 PRESFR SLP086 DENSITY ALT 1300FT =
2018-07-18 08:00 METAR CYHZ 180800Z 17007KT 150V240 1 1/2SM -RA BR VV001 19/19 A2980 RMK FG8
                 SLP092 DENSITY ALT 1300FT =
2018-07-18 07:51 METAR CYHZ 180751Z 21006KT 150V230 1 1/2SM RA BR VV001 19/19 A2981 RMK FG8
                 SLP095 DENSITY ALT 1300FT =
2018-07-18 07:29 METAR CYHZ 180729Z 18009G15KT 3/4SM R23/3500V5000FT/U R14/5500VP6000FT/D -RA BR
                 VV001 19/19 A2982 RMK FG8 SLP097 DENSITY ALT 1300FT =
2018-07-18 07:00 METAR CYHZ 180700Z 18008KT 1/2SM R23/3000FT/N R14/4000VP6000FT/U FG VV001 19/19
                 A2983 RMK FG8 SLP100 DENSITY ALT 1200FT =
2018-07-18 06:00 METAR CYHZ 180600Z 20010G18KT 1/2SM R23/3000V5500FT/D R14/4000VP6000FT/D BR
                 VV001 19/19 A2983 RMK FG8 SLP103 DENSITY ALT 1200FT =

Support USWX by starting your Amazon purchase here.